Latest Weather Observations for Townsville - Fanning River (Defence)

IDQ60801

Issued at 7:42 pm EST Thursday 16 August 2018 (issued every 10 minutes, with the page automatically refreshed every 10 minutes)

About weather observations | Map of weather stations | Latest weather observations for QLD | Other Formats
Station Details ID: 033328 Name: TOWNSVILLE- FANNING RIVER (DEFENCE) Lat: -19.78 Lon: 146.50 Height: 325.83 m
Data from the previous 72 hours. | See also: Recent months at Townsville - Fanning River (Defence)
Date/Time
EST
Temp
°C
App
Temp
°C
Dew
Point
°C
Rel
Hum
%
Delta-T
°C
Wind Press
QNH
hPa
Press
MSL
hPa
Rain since
9am
mm
Dir  Spd
km/h
Gust
km/h
Spd
kts
Gust
kts
16/07:30pm 18.9 19.2 12.2 65 3.8 E 2 6 1 3 1014.5 1013.4 0.0
16/07:00pm 20.0 20.6 11.8 59 4.6 CALM 0 0 0 0 1014.1 1013.0 0.0
16/06:30pm 22.1 21.8 11.5 51 6.0 NE 4 7 2 4 1013.7 1012.6 0.0
16/06:00pm 24.0 21.7 5.8 31 9.4 S 7 9 4 5 1013.3 1012.2 0.0
16/05:30pm 25.6 23.6 6.3 29 10.2 SSE 6 9 3 5 1013.2 1012.1 0.0
16/05:00pm 26.6 24.5 6.6 28 10.6 S 7 17 4 9 1013.1 1012.0 0.0
16/04:30pm 27.1 25.2 6.5 27 11.0 SSE 6 13 3 7 1013.2 1012.1 0.0
16/04:00pm 27.2 25.1 6.6 27 11.0 SSW 7 17 4 9 1013.2 1012.1 0.0
16/03:30pm 28.2 26.3 6.9 26 11.5 SW 6 13 3 7 1013.4 1012.3 0.0
16/03:00pm 27.6 25.2 6.9 27 11.1 SW 9 17 5 9 1013.7 1012.6 0.0
16/02:30pm 27.6 25.2 6.9 27 11.1 WNW 9 17 5 9 1014.1 1013.0 0.0
16/02:00pm 27.1 24.6 6.5 27 11.0 NW 9 17 5 9 1014.5 1013.4 0.0
16/01:30pm 26.8 24.6 7.8 30 10.3 NNW 9 20 5 11 1015.3 1014.2 0.0
16/01:00pm 26.8 25.9 9.2 33 9.8 WSW 4 11 2 6 1015.8 1014.7 0.0
16/12:30pm 24.8 23.0 9.5 38 8.5 S 9 15 5 8 1016.4 1015.3 0.0
16/12:00pm 25.1 24.2 10.6 40 8.2 NNE 6 7 3 4 1017.0 1015.9 0.0
16/11:30am 24.4 23.3 10.7 42 7.7 NE 7 19 4 10 1017.7 1016.6 0.0
16/11:00am 24.3 23.7 11.6 45 7.3 SSW 6 9 3 5 1018.2 1017.2 0.0
16/10:30am 23.1 22.2 10.5 45 7.0 ESE 6 13 3 7 1018.9 1017.8 0.0
16/10:00am 22.7 21.8 10.5 46 6.8 ESE 6 11 3 6 1019.4 1018.3 0.0
16/09:30am 21.0 21.3 13.4 62 4.4 SE 4 7 2 4 1019.4 1018.3 0.0
16/09:00am 20.1 20.6 15.1 73 3.0 ENE 6 9 3 5 1019.4 1018.3 0.0
16/08:30am 17.9 18.8 16.1 89 1.1 ENE 6 11 3 6 1019.1 1018.0 0.0
16/08:00am 16.1 17.3 15.9 99 0.1 E 4 6 2 3 1018.8 1017.7 0.0
16/07:30am 15.6 16.6 15.4 99 0.1 SE 4 6 2 3 1018.4 1017.3 0.0
16/07:00am 14.5 15.1 14.3 99 0.1 SE 4 6 2 3 1017.8 1016.8 0.0
16/06:30am 14.4 15.0 14.2 99 0.1 E 4 6 2 3 1017.6 1016.5 0.0
16/06:00am 14.0 14.4 13.7 98 0.2 ESE 4 6 2 3 1017.5 1016.4 0.0
16/05:30am 13.7 14.0 13.4 98 0.2 ESE 4 6 2 3 1017.4 1016.3 0.0
16/05:00am 13.8 14.1 13.5 98 0.2 SE 4 6 2 3 1017.3 1016.2 0.0
16/04:30am 13.3 13.0 12.8 97 0.3 SE 6 6 3 3 1017.3 1016.2 0.0
16/04:00am 14.0 14.4 13.7 98 0.2 ESE 4 4 2 2 1017.3 1016.2 0.0
16/03:30am 13.9 14.3 13.6 98 0.2 E 4 4 2 2 1017.5 1016.4 0.0
16/03:00am 13.9 13.8 13.4 97 0.3 ESE 6 6 3 3 1017.7 1016.6 0.0
16/02:30am 14.2 14.6 13.6 96 0.3 ESE 4 6 2 3 1017.9 1016.9 0.0
16/02:00am 14.5 14.9 13.7 95 0.5 ESE 4 6 2 3 1018.0 1017.0 0.0
16/01:30am 14.8 15.2 13.7 93 0.6 E 4 6 2 3 1018.4 1017.3 0.0
16/01:00am 14.6 15.0 13.6 94 0.6 ENE 4 6 2 3 1018.6 1017.5 0.0
16/12:30am 14.8 14.8 13.5 92 0.7 ENE 6 9 3 5 1018.7 1017.6 0.0
16/12:00am 14.8 14.7 13.2 90 0.9 E 6 9 3 5 1018.8 1017.7 0.0
 
Date/Time
EST
Temp
°C
App
Temp
°C
Dew
Point
°C
Rel
Hum
%
Delta-T
°C
Wind Press
QNH
hPa
Press
MSL
hPa
Rain since
9am
mm
Dir  Spd
km/h
Gust
km/h
Spd
kts
Gust
kts
15/11:30pm 15.1 14.6 12.8 86 1.3 E 7 9 4 5 1018.8 1017.7 0.0
15/11:00pm 14.8 14.3 12.1 84 1.5 E 6 9 3 5 1018.7 1017.6 0.0
15/10:30pm 15.3 15.2 12.2 82 1.7 ESE 4 7 2 4 1018.9 1017.8 0.0
15/10:00pm 15.4 15.3 12.0 80 1.9 ESE 4 9 2 5 1019.0 1017.9 0.0
15/09:30pm 15.5 14.8 11.3 76 2.3 ESE 6 7 3 4 1019.0 1017.9 0.0
15/09:00pm 16.4 15.9 12.0 75 2.4 E 6 9 3 5 1018.9 1017.8 0.0
15/08:30pm 16.2 15.9 11.6 74 2.5 E 4 6 2 3 1018.8 1017.7 0.0
15/08:00pm 17.5 17.2 11.5 68 3.3 ENE 4 6 2 3 1018.2 1017.2 0.0
15/07:30pm 18.4 18.4 12.4 68 3.4 NNE 4 6 2 3 1017.8 1016.8 0.0
15/07:00pm 18.5 17.7 9.8 57 4.7 ENE 4 7 2 4 1017.6 1016.5 0.0
15/06:30pm 19.7 18.7 7.4 45 6.4 E 2 4 1 2 1017.4 1016.3 0.0
15/06:00pm 22.0 20.3 7.4 39 7.7 ENE 6 9 3 5 1017.4 1016.3 0.0
15/05:30pm 23.6 21.9 7.7 36 8.5 ENE 6 13 3 7 1017.5 1016.4 0.0
15/05:00pm 24.3 22.6 7.4 34 9.0 SE 6 13 3 7 1017.4 1016.3 0.0
15/04:30pm 25.3 23.6 7.4 32 9.6 ESE 6 17 3 9 1017.4 1016.3 0.0
15/04:00pm 25.3 23.5 7.9 33 9.4 E 7 17 4 9 1017.5 1016.4 0.0
15/03:30pm 24.9 22.5 7.1 32 9.5 E 9 17 5 9 1017.8 1016.8 0.0
15/03:00pm 24.5 22.2 7.6 34 9.0 ENE 9 20 5 11 1018.0 1017.0 0.0
15/02:30pm 25.5 23.8 8.5 34 9.3 ESE 7 20 4 11 1018.2 1017.2 0.0
15/02:00pm 24.9 22.2 7.5 33 9.3 ENE 11 22 6 12 1018.9 1017.8 0.0
15/01:30pm 24.4 22.9 9.2 38 8.4 ENE 7 13 4 7 1019.4 1018.3 0.0
15/01:00pm 24.3 22.9 9.5 39 8.2 NE 7 20 4 11 1020.0 1018.9 0.0
15/12:30pm 23.7 22.6 10.0 42 7.6 ENE 6 13 3 7 1020.3 1019.2 0.0
15/12:00pm 22.8 22.0 10.9 47 6.7 E 6 17 3 9 1020.8 1019.8 0.0
15/11:30am 21.9 20.8 10.7 49 6.2 ESE 7 17 4 9 1021.1 1020.1 0.0
15/11:00am 21.2 18.9 10.4 50 5.9 ESE 13 22 7 12 1021.7 1020.6 0.0
15/10:30am 21.9 20.4 10.4 48 6.4 E 9 17 5 9 1022.0 1020.9 0.0
15/10:00am 20.7 18.7 10.2 51 5.7 ESE 11 19 6 10 1022.2 1021.1 0.0
15/09:30am 20.0 18.5 10.7 55 5.1 E 9 15 5 8 1022.2 1021.1 0.0
15/09:00am 18.4 17.5 10.8 61 4.2 SE 6 11 3 6 1022.0 1020.9 0.0
15/08:30am 16.8 16.1 11.3 70 3.0 SE 6 9 3 5 1021.8 1020.7 0.0
15/08:00am 16.2 15.4 11.2 72 2.7 ESE 6 9 3 5 1021.6 1020.5 0.0
15/07:30am 14.7 14.1 11.7 82 1.6 SE 6 9 3 5 1021.6 1020.5 0.0
15/07:00am 12.2 11.9 11.4 95 0.4 SE 4 6 2 3 1021.2 1020.2 0.0
15/06:30am 11.2 10.4 9.5 89 0.9 SE 4 6 2 3 1020.9 1019.9 0.0
15/06:00am 12.0 11.2 10.9 93 0.6 ESE 6 7 3 4 1020.7 1019.7 0.0
15/05:30am 12.1 11.4 11.3 95 0.4 ESE 6 6 3 3 1020.4 1019.3 0.0
15/05:00am 11.9 11.5 11.1 95 0.4 ESE 4 6 2 3 1020.2 1019.1 0.0
15/04:30am 12.1 11.7 11.0 93 0.6 ESE 4 6 2 3 1020.0 1018.9 0.0
15/04:00am 12.8 12.1 11.4 91 0.8 E 6 7 3 4 1020.2 1019.1 0.0
15/03:30am 13.2 12.5 11.3 88 1.0 E 6 7 3 4 1020.3 1019.2 0.0
15/03:00am 13.7 12.8 11.4 86 1.2 E 7 13 4 7 1020.5 1019.5 0.0
15/02:30am 13.4 12.5 11.5 88 1.0 E 7 11 4 6 1020.7 1019.7 0.0
15/02:00am 13.4 12.7 11.3 87 1.1 ESE 6 9 3 5 1020.9 1019.9 0.0
15/01:30am 14.1 13.4 12.0 87 1.2 E 7 13 4 7 1021.0 1020.0 0.0
15/01:00am 14.2 13.9 12.8 91 0.8 E 6 9 3 5 1021.0 1020.0 0.0
15/12:30am 14.5 14.0 12.7 89 1.0 E 7 11 4 6 1021.3 1020.3 0.0
15/12:00am 14.4 13.7 12.1 86 1.3 E 7 9 4 5 1021.4 1020.4 0.0
 
Date/Time
EST
Temp
°C
App
Temp
°C
Dew
Point
°C
Rel
Hum
%
Delta-T
°C
Wind Press
QNH
hPa
Press
MSL
hPa
Rain since
9am
mm
Dir  Spd
km/h
Gust
km/h
Spd
kts
Gust
kts
14/11:30pm 14.0 13.3 11.5 85 1.4 E 6 7 3 4 1021.6 1020.5 0.0
14/11:00pm 14.3 13.6 11.5 83 1.5 ENE 6 7 3 4 1021.6 1020.5 0.0
14/10:30pm 14.6 14.7 11.6 82 1.6 ENE 2 6 1 3 1021.7 1020.6 0.0
14/10:00pm 15.0 14.7 11.4 79 2.0 ENE 4 4 2 2 1021.7 1020.6 0.0
14/09:30pm 15.3 14.5 10.9 75 2.4 E 6 7 3 4 1021.7 1020.6 0.0
14/09:00pm 16.3 15.6 11.5 73 2.6 E 6 11 3 6 1021.7 1020.6 0.0
14/08:30pm 16.4 15.8 11.6 73 2.6 ENE 6 7 3 4 1021.6 1020.5 0.0
14/08:00pm 16.8 16.5 11.5 71 2.9 ENE 4 6 2 3 1021.2 1020.2 0.0
14/07:30pm 18.1 17.4 11.9 67 3.5 ENE 7 11 4 6 1020.8 1019.8 0.0
14/07:00pm 19.0 18.1 11.3 61 4.3 NE 7 17 4 9 1020.5 1019.5 0.0
14/06:30pm 18.9 17.5 7.4 47 5.9 NNE 4 9 2 5 1020.2 1019.1 0.0
14/06:00pm 20.6 18.7 6.5 40 7.2 ENE 6 9 3 5 1020.0 1018.9 0.0
14/05:30pm 22.2 20.0 6.0 35 8.3 E 7 17 4 9 1019.9 1018.8 0.0
14/05:00pm 23.1 20.4 5.5 32 9.0 E 9 17 5 9 1019.8 1018.7 0.0
14/04:30pm 23.9 20.5 5.8 31 9.3 ENE 13 24 7 13 1019.7 1018.6 0.0
14/04:00pm 24.3 21.5 5.1 29 9.8 ENE 9 17 5 9 1019.6 1018.5 0.0
14/03:30pm 24.4 21.3 3.7 26 10.3 E 9 19 5 10 1019.8 1018.7 0.0
14/03:00pm 24.4 21.2 3.1 25 10.5 E 9 24 5 13 1019.9 1018.8 0.0
14/02:30pm 24.7 21.1 2.8 24 10.8 ESE 11 19 6 10 1020.2 1019.1 0.0
14/02:00pm 23.8 20.2 3.2 26 10.1 ESE 11 22 6 12 1020.6 1019.6 0.0
14/01:30pm 23.2 20.0 3.2 27 9.8 ENE 9 20 5 11 1021.0 1020.0 0.0
14/01:00pm 22.9 19.5 3.9 29 9.4 NE 11 19 6 10 1021.4 1020.4 0.0
14/12:30pm 22.9 19.5 3.9 29 9.4 ENE 11 24 6 13 1021.8 1020.7 0.0
14/12:00pm 22.4 18.4 4.9 32 8.8 ENE 15 28 8 15 1022.3 1021.2 0.0
14/11:30am 21.4 17.3 2.2 28 9.1 ENE 13 24 7 13 1022.9 1021.8 0.0
14/11:00am 21.2 17.2 3.0 30 8.7 E 13 22 7 12 1023.5 1022.5 0.0
14/10:30am 20.2 16.7 1.1 28 8.8 ESE 9 20 5 11 1024.0 1023.0 0.0
14/10:00am 19.4 15.4 -5.5 18 9.9 SSE 7 17 4 9 1024.3 1023.3 0.0
14/09:30am 17.3 13.5 -5.8 20 9.0 SE 6 11 3 6 1024.5 1023.5 0.0
14/09:00am 15.4 11.0 -5.6 23 8.0 SSE 9 17 5 9 1024.6 1023.6 0.0
14/08:30am 14.9 10.8 -6.6 22 8.0 SSE 7 15 4 8 1024.3 1023.3 0.0
14/08:00am 13.4 10.8 -4.7 28 6.9 CALM 0 6 0 3 1023.9 1022.9 0.0
14/07:30am 9.4 7.0 -2.8 42 4.7 CALM 0 4 0 2 1023.5 1022.5 0.0
14/07:00am 6.1 2.8 -4.6 46 3.7 ENE 4 4 2 2 1023.2 1022.2 0.0
14/06:30am 6.9 3.6 -4.8 43 4.1 E 4 6 2 3 1022.7 1021.6 0.0
14/06:00am 5.5 2.2 -4.3 49 3.4 ENE 4 4 2 2 1022.7 1021.6 0.0
14/05:30am 9.0 5.3 -4.9 37 5.0 SE 6 9 3 5 1022.5 1021.4 0.0
14/05:00am 8.6 4.8 -5.2 37 4.9 SE 6 9 3 5 1022.4 1021.3 0.0
14/04:30am 10.9 7.1 -6.0 30 6.1 SSE 6 9 3 5 1022.3 1021.2 0.0
14/04:00am 11.2 7.4 -5.7 30 6.1 SE 6 9 3 5 1022.1 1021.0 0.0
14/03:30am 12.7 8.7 -5.8 27 6.8 SE 7 13 4 7 1022.1 1021.0 0.0
14/03:00am 13.5 9.2 -5.1 27 7.0 SSE 9 19 5 10 1021.9 1020.8 0.0
14/02:30am 12.7 8.9 -3.5 32 6.3 SSE 7 11 4 6 1022.0 1020.9 0.0
14/02:00am 11.4 8.6 -0.1 45 4.7 SE 4 7 2 4 1022.2 1021.1 0.0
14/01:30am 13.0 9.8 -0.6 39 5.7 SE 6 9 3 5 1022.2 1021.1 0.0
14/01:00am 13.1 10.6 3.7 53 4.3 SE 6 7 3 4 1022.2 1021.1 0.0
14/12:30am 11.8 9.6 5.2 64 3.1 SE 6 7 3 4 1022.6 1021.5 0.0
14/12:00am 11.8 10.3 8.5 80 1.7 SE 6 7 3 4 1022.7 1021.6 0.0
 
Date/Time
EST
Temp
°C
App
Temp
°C
Dew
Point
°C
Rel
Hum
%
Delta-T
°C
Wind Press
QNH
hPa
Press
MSL
hPa
Rain since
9am
mm
Dir  Spd
km/h
Gust
km/h
Spd
kts
Gust
kts
13/11:30pm 12.3 10.9 9.0 80 1.7 ESE 6 6 3 3 1022.6 1021.5 0.0
13/11:00pm 13.1 11.9 9.4 78 1.9 ESE 6 6 3 3 1022.7 1021.6 0.0
13/10:30pm 13.9 12.7 9.5 75 2.3 SE 6 7 3 4 1022.7 1021.6 0.0
13/10:00pm 14.3 12.9 8.9 70 2.8 SE 6 7 3 4 1022.5 1021.4 0.0
13/09:30pm 14.7 12.4 5.0 52 4.6 SE 6 7 3 4 1022.5 1021.4 0.0
13/09:00pm 15.6 12.8 2.1 40 6.1 ESE 6 9 3 5 1022.3 1021.2 0.0
13/08:30pm 16.2 13.7 1.5 37 6.6 E 4 7 2 4 1021.9 1020.8 0.0
13/08:00pm 18.4 15.5 1.4 32 7.7 SSE 6 9 3 5 1021.3 1020.3 0.0

Other Formats:

Comma delimited format used in spreadsheet applications
http://www.bom.gov.au/fwo/IDQ60801/IDQ60801.94273.axf

JavaScript Object Notation format (JSON) in row-major order
http://www.bom.gov.au/fwo/IDQ60801/IDQ60801.94273.json